createdAt,value
2017-10-21T00:01:28.370Z,100032.07
2017-10-21T00:03:57.599Z,100027.55
2017-10-21T00:06:26.906Z,100023.71
2017-10-21T00:08:56.889Z,100021.20
2017-10-21T00:11:26.107Z,100028.08
2017-10-21T00:13:55.319Z,100023.72
2017-10-21T00:16:24.551Z,100022.92
2017-10-21T00:18:53.735Z,100026.70
2017-10-21T00:21:23.011Z,100022.23
2017-10-21T00:23:52.277Z,100023.80
2017-10-21T00:26:22.379Z,100022.88
2017-10-21T00:28:51.568Z,100023.40
2017-10-21T00:31:20.782Z,100013.63
2017-10-21T00:33:50.006Z,100020.02
2017-10-21T00:36:19.195Z,100025.48
2017-10-21T00:38:48.407Z,100021.06
2017-10-21T00:41:17.604Z,100017.87
2017-10-21T00:43:46.803Z,100012.63
2017-10-21T00:46:16.029Z,100019.41
2017-10-21T00:48:46.000Z,100020.59
2017-10-21T00:51:15.230Z,100018.96
2017-10-21T00:53:45.211Z,100017.95
2017-10-21T00:56:14.426Z,100011.80
2017-10-21T00:58:43.654Z,100014.64
2017-10-21T01:01:12.852Z,100010.37
2017-10-21T01:03:42.067Z,100008.49
2017-10-21T01:06:11.517Z,100009.11
2017-10-21T01:08:40.715Z,99998.11
2017-10-21T01:11:09.951Z,100000.66
2017-10-21T01:13:39.158Z,99992.25
2017-10-21T01:16:08.338Z,99992.92
2017-10-21T01:18:38.314Z,99987.20
2017-10-21T01:21:07.500Z,99984.17
2017-10-21T01:23:36.830Z,99986.00
2017-10-21T01:26:06.012Z,99988.66
2017-10-21T01:28:35.211Z,99985.61
2017-10-21T01:31:04.407Z,99983.42
2017-10-21T01:33:33.599Z,99987.81
2017-10-21T01:36:02.804Z,99987.52
2017-10-21T01:38:32.396Z,99990.36
2017-10-21T01:41:01.635Z,99991.73
2017-10-21T01:43:31.605Z,99994.28
2017-10-21T01:46:00.813Z,99988.08
2017-10-21T01:48:29.999Z,99994.72
2017-10-21T01:50:59.208Z,99994.05
2017-10-21T01:53:28.429Z,99995.59
2017-10-21T01:55:58.487Z,99987.05
2017-10-21T01:58:28.074Z,99984.16
2017-10-21T02:00:58.016Z,99979.67
2017-10-21T02:03:27.227Z,99974.04
2017-10-21T02:05:56.461Z,99981.21
2017-10-21T02:08:25.648Z,99978.53
2017-10-21T02:10:54.864Z,99983.02
2017-10-21T02:13:25.080Z,99982.18
2017-10-21T02:15:55.058Z,99989.62
2017-10-21T02:18:24.394Z,99989.73
2017-10-21T02:20:54.360Z,99983.71
2017-10-21T02:23:23.560Z,99982.45
2017-10-21T02:25:52.752Z,99986.94
2017-10-21T02:28:21.941Z,99976.16
2017-10-21T02:30:51.146Z,99972.18
2017-10-21T02:33:20.350Z,99969.59
2017-10-21T02:35:49.592Z,99959.08
2017-10-21T02:38:18.796Z,99957.80
2017-10-21T02:40:48.283Z,99953.81
2017-10-21T02:43:17.461Z,99948.83
2017-10-21T02:45:46.887Z,99948.66
2017-10-21T02:48:16.193Z,99940.59
2017-10-21T02:50:45.388Z,99944.91
2017-10-21T02:53:15.347Z,99941.09
2017-10-21T02:55:44.625Z,99940.38
2017-10-21T02:58:13.837Z,99929.55
2017-10-21T03:00:43.368Z,99928.80
2017-10-21T03:03:12.578Z,99927.03
2017-10-21T03:05:41.771Z,99926.73
2017-10-21T03:08:10.979Z,99917.34
2017-10-21T03:10:40.171Z,99911.09
2017-10-21T03:13:09.499Z,99923.59
2017-10-21T03:15:39.467Z,99922.40
2017-10-21T03:18:08.672Z,99914.61
2017-10-21T03:20:37.872Z,99908.89
2017-10-21T03:23:07.092Z,99911.63
2017-10-21T03:25:36.299Z,99912.45
2017-10-21T03:28:06.263Z,99913.42
2017-10-21T03:30:35.783Z,99908.08
2017-10-21T03:33:05.008Z,99908.19
2017-10-21T03:35:34.239Z,99907.57
2017-10-21T03:38:03.450Z,99910.13
2017-10-21T03:40:32.636Z,99898.36
2017-10-21T03:43:02.161Z,99892.43
2017-10-21T03:45:31.367Z,99889.99
2017-10-21T03:48:00.564Z,99886.99
2017-10-21T03:50:29.780Z,99873.34
2017-10-21T03:52:58.968Z,99879.16
2017-10-21T03:55:28.241Z,99879.52
2017-10-21T03:57:57.453Z,99878.02
2017-10-21T04:00:26.962Z,99878.27
2017-10-21T04:02:56.183Z,99878.80
2017-10-21T04:05:26.152Z,99878.17
2017-10-21T04:07:55.389Z,99877.02
2017-10-21T04:10:24.565Z,99875.27
2017-10-21T04:12:53.899Z,99878.72
2017-10-21T04:15:23.148Z,99876.60
2017-10-21T04:17:52.454Z,99880.09
2017-10-21T04:20:21.671Z,99879.05
2017-10-21T04:22:50.863Z,99873.48
2017-10-21T04:25:20.140Z,99871.77
2017-10-21T04:27:49.606Z,99870.11
2017-10-21T04:30:19.040Z,99873.28
2017-10-21T04:32:48.551Z,99866.59
2017-10-21T04:35:17.759Z,99864.05
2017-10-21T04:37:46.955Z,99861.31
2017-10-21T04:40:16.154Z,99864.19
2017-10-21T04:42:45.367Z,99860.09
2017-10-21T04:45:15.329Z,99861.27
2017-10-21T04:47:45.303Z,99861.75
2017-10-21T04:50:14.564Z,99863.37
2017-10-21T04:52:43.800Z,99852.80
2017-10-21T04:55:13.004Z,99856.15
2017-10-21T04:57:42.316Z,99853.95
2017-10-21T05:00:11.512Z,99853.56
2017-10-21T05:02:40.708Z,99855.53
2017-10-21T05:05:09.946Z,99846.41
2017-10-21T05:07:39.895Z,99854.17
2017-10-21T05:10:09.109Z,99858.16
2017-10-21T05:12:39.096Z,99851.15
2017-10-21T05:15:08.313Z,99856.33
2017-10-21T05:17:37.508Z,99856.79
2017-10-21T05:20:06.735Z,99855.42
2017-10-21T05:22:35.942Z,99855.11
2017-10-21T05:25:05.923Z,99848.64
2017-10-21T05:27:35.133Z,99851.33
2017-10-21T05:30:04.358Z,99841.02
2017-10-21T05:32:33.559Z,99837.64
2017-10-21T05:35:03.092Z,99828.27
2017-10-21T05:37:32.299Z,99836.52
2017-10-21T05:40:01.552Z,99840.83
2017-10-21T05:42:31.540Z,99846.86
2017-10-21T05:45:00.752Z,99838.28
2017-10-21T05:47:30.723Z,99839.86
2017-10-21T05:49:59.927Z,99842.87
2017-10-21T05:52:29.895Z,99842.08
2017-10-21T05:54:59.880Z,99845.38
2017-10-21T05:57:29.120Z,99842.25
2017-10-21T05:59:58.588Z,99843.44
2017-10-21T06:02:28.574Z,99838.23
2017-10-21T06:04:57.798Z,99848.57
2017-10-21T06:07:27.004Z,99842.98
2017-10-21T06:09:56.192Z,99839.05
2017-10-21T06:12:25.403Z,99832.47
2017-10-21T06:14:55.405Z,99831.22
2017-10-21T06:17:24.644Z,99829.23
2017-10-21T06:19:53.931Z,99822.06
2017-10-21T06:22:23.194Z,99832.52
2017-10-21T06:24:52.442Z,99828.48
2017-10-21T06:27:21.669Z,99833.91
2017-10-21T06:29:51.697Z,99826.64
2017-10-21T06:32:20.926Z,99828.01
2017-10-21T06:34:52.081Z,99825.17
2017-10-21T06:37:21.551Z,99822.62
2017-10-21T06:39:50.950Z,99814.55
2017-10-21T06:42:20.228Z,99810.20
2017-10-21T06:44:49.797Z,99805.14
2017-10-21T06:47:19.008Z,99810.27
2017-10-21T06:49:48.204Z,99801.16
2017-10-21T06:52:17.414Z,99807.73
2017-10-21T06:54:46.624Z,99819.88
2017-10-21T06:57:15.839Z,99822.17
2017-10-21T06:59:45.053Z,99826.09
2017-10-21T07:02:14.494Z,99837.77
2017-10-21T07:04:43.689Z,99821.76
2017-10-21T07:07:12.903Z,99828.48
2017-10-21T07:09:42.104Z,99837.13
2017-10-21T07:12:11.305Z,99833.91
2017-10-21T07:14:40.511Z,99834.59
2017-10-21T07:17:09.716Z,99827.05
2017-10-21T07:19:38.920Z,99826.76
2017-10-21T07:22:08.131Z,99828.02
2017-10-21T07:24:37.343Z,99827.23
2017-10-21T07:27:07.337Z,99817.67
2017-10-21T07:29:36.535Z,99814.86
2017-10-21T07:32:05.999Z,99818.19
2017-10-21T07:34:35.951Z,99812.22
2017-10-21T07:37:05.212Z,99819.41
2017-10-21T07:39:34.413Z,99816.17
2017-10-21T07:42:03.614Z,99814.11
2017-10-21T07:44:32.824Z,99806.09
2017-10-21T07:47:02.048Z,99802.59
2017-10-21T07:49:31.263Z,99804.61
2017-10-21T07:52:00.467Z,99811.05
2017-10-21T07:54:30.454Z,99809.11
2017-10-21T07:56:59.643Z,99811.18
2017-10-21T07:59:28.910Z,99805.14
2017-10-21T08:01:58.100Z,99803.36
2017-10-21T08:04:27.587Z,99797.31
2017-10-21T08:06:56.783Z,99795.67
2017-10-21T08:09:25.984Z,99798.05
2017-10-21T08:11:55.956Z,99789.78
2017-10-21T08:14:25.172Z,99794.40
2017-10-21T08:16:55.175Z,99794.64
2017-10-21T08:19:24.371Z,99799.44
2017-10-21T08:21:53.581Z,99798.50
2017-10-21T08:24:22.784Z,99789.90
2017-10-21T08:26:52.764Z,99786.95
2017-10-21T08:29:21.995Z,99787.62
2017-10-21T08:31:51.208Z,99782.15
2017-10-21T08:34:21.169Z,99786.38
2017-10-21T08:36:50.408Z,99789.11
2017-10-21T08:39:19.625Z,99787.62
2017-10-21T08:41:49.579Z,99785.70
2017-10-21T08:44:19.132Z,99791.20
2017-10-21T08:46:49.099Z,99789.97
2017-10-21T08:49:18.323Z,99785.47
2017-10-21T08:51:47.528Z,99790.05
2017-10-21T08:54:16.752Z,99804.61
2017-10-21T08:56:46.030Z,99775.96
2017-10-21T08:59:15.246Z,99796.45
2017-10-21T09:01:45.203Z,99795.48
2017-10-21T09:04:14.431Z,99792.57
2017-10-21T09:06:44.415Z,99787.56
2017-10-21T09:09:13.625Z,99780.21
2017-10-21T09:11:42.826Z,99775.72
2017-10-21T09:14:12.060Z,99782.09
2017-10-21T09:16:42.036Z,99774.14
2017-10-21T09:19:11.231Z,99769.45
2017-10-21T09:21:40.465Z,99768.25
2017-10-21T09:24:09.643Z,99763.11
2017-10-21T09:26:38.870Z,99761.95
2017-10-21T09:29:08.838Z,99768.09
2017-10-21T09:31:38.059Z,99766.99
2017-10-21T09:34:07.387Z,99774.95
2017-10-21T09:36:36.612Z,99768.56
2017-10-21T09:39:05.801Z,99757.03
2017-10-21T09:41:35.008Z,99757.24
2017-10-21T09:44:04.232Z,99750.41
2017-10-21T09:46:33.435Z,99759.92
2017-10-21T09:49:02.652Z,99766.59
2017-10-21T09:51:32.632Z,99762.78
2017-10-21T09:54:01.865Z,99758.63
2017-10-21T09:56:31.844Z,99769.89
2017-10-21T09:59:01.059Z,99765.28
2017-10-21T10:01:30.540Z,99767.80
2017-10-21T10:03:59.727Z,99765.64
2017-10-21T10:06:28.951Z,99761.66
2017-10-21T10:08:58.173Z,99763.55
2017-10-21T10:11:27.364Z,99763.64
2017-10-21T10:13:56.556Z,99762.67
2017-10-21T10:16:25.826Z,99754.75
2017-10-21T10:18:55.271Z,99762.70
2017-10-21T10:21:25.245Z,99761.37
2017-10-21T10:23:54.444Z,99761.72
2017-10-21T10:26:23.683Z,99762.16
2017-10-21T10:28:53.683Z,99764.40
2017-10-21T10:31:22.901Z,99766.97
2017-10-21T10:33:52.272Z,99776.55
2017-10-21T10:36:21.520Z,99777.89
2017-10-21T10:38:50.715Z,99770.88
2017-10-21T10:41:20.089Z,99776.77
2017-10-21T10:43:49.285Z,99769.20
2017-10-21T10:46:19.285Z,99776.16
2017-10-21T10:48:48.495Z,99778.66
2017-10-21T10:51:17.737Z,99776.55
2017-10-21T10:53:46.928Z,99775.96
2017-10-21T10:56:16.172Z,99773.00
2017-10-21T10:58:45.375Z,99774.61
2017-10-21T11:01:14.575Z,99774.80
2017-10-21T11:03:43.775Z,99761.98
2017-10-21T11:06:12.985Z,99757.35
2017-10-21T11:08:42.980Z,99763.83
2017-10-21T11:11:12.251Z,99762.16
2017-10-21T11:13:41.472Z,99763.37
2017-10-21T11:16:10.868Z,99765.59
2017-10-21T11:18:40.070Z,99763.13
2017-10-21T11:21:09.282Z,99768.66
2017-10-21T11:23:38.483Z,99767.73
2017-10-21T11:26:07.688Z,99763.45
2017-10-21T11:28:37.664Z,99766.36
2017-10-21T11:31:06.875Z,99768.33
2017-10-21T11:33:36.080Z,99760.14
2017-10-21T11:36:05.300Z,99764.11
2017-10-21T11:38:34.508Z,99754.80
2017-10-21T11:41:03.714Z,99758.67
2017-10-21T11:43:32.942Z,99751.58
2017-10-21T11:46:02.146Z,99754.98
2017-10-21T11:48:31.776Z,99757.64
2017-10-21T11:51:00.966Z,99758.71
2017-10-21T11:53:31.003Z,99759.17
2017-10-21T11:56:01.037Z,99757.89
2017-10-21T11:58:30.346Z,99756.39
2017-10-21T12:00:59.569Z,99754.43
2017-10-21T12:03:28.764Z,99751.55
2017-10-21T12:05:57.992Z,99738.85
2017-10-21T12:08:27.207Z,99742.84
2017-10-21T12:10:56.552Z,99743.24
2017-10-21T12:13:25.757Z,99735.25
2017-10-21T12:15:55.004Z,99743.71
2017-10-21T12:18:24.251Z,99745.14
2017-10-21T12:20:53.451Z,99751.49
2017-10-21T12:23:22.659Z,99737.97
2017-10-21T12:25:52.660Z,99746.27
2017-10-21T12:28:21.903Z,99739.66
2017-10-21T12:30:51.136Z,99743.88
2017-10-21T12:33:20.370Z,99736.03
2017-10-21T12:35:49.614Z,99742.52
2017-10-21T12:38:19.616Z,99739.02
2017-10-21T12:40:48.835Z,99740.00
2017-10-21T12:43:18.842Z,99741.59
2017-10-21T12:45:48.154Z,99732.98
2017-10-21T12:48:18.145Z,99738.92
2017-10-21T12:50:47.347Z,99738.13
2017-10-21T12:53:17.330Z,99740.49
2017-10-21T12:55:46.568Z,99731.62
2017-10-21T12:58:15.781Z,99739.70
2017-10-21T13:00:44.993Z,99731.06
2017-10-21T13:03:14.192Z,99728.59
2017-10-21T13:05:43.396Z,99729.46
2017-10-21T13:08:12.647Z,99720.47
2017-10-21T13:10:42.627Z,99721.53
2017-10-21T13:13:11.875Z,99717.22
2017-10-21T13:15:41.871Z,99717.22
2017-10-21T13:18:11.066Z,99720.52
2017-10-21T13:20:40.289Z,99718.36
2017-10-21T13:23:10.248Z,99717.97
2017-10-21T13:25:39.449Z,99727.17
2017-10-21T13:28:08.884Z,99716.73
2017-10-21T13:30:38.084Z,99715.55
2017-10-21T13:33:07.330Z,99713.61
2017-10-21T13:35:37.293Z,99711.29
2017-10-21T13:38:06.500Z,99719.94
2017-10-21T13:40:36.486Z,99706.80
2017-10-21T13:43:05.685Z,99720.55
2017-10-21T13:45:34.897Z,99711.55
2017-10-21T13:48:04.116Z,99709.97
2017-10-21T13:50:33.307Z,99708.59
2017-10-21T13:53:03.292Z,99695.39
2017-10-21T13:55:32.624Z,99700.93
2017-10-21T13:58:02.595Z,99703.48
2017-10-21T14:00:31.800Z,99706.03
2017-10-21T14:03:01.023Z,99706.45
2017-10-21T14:05:30.370Z,99707.86
2017-10-21T14:07:59.596Z,99710.78
2017-10-21T14:10:28.845Z,99708.23
2017-10-21T14:12:58.848Z,99705.45
2017-10-21T14:15:28.381Z,99707.58
2017-10-21T14:17:57.595Z,99702.25
2017-10-21T14:20:26.807Z,99717.91
2017-10-21T14:22:56.012Z,99715.12
2017-10-21T14:25:25.212Z,99710.80
2017-10-21T14:27:54.442Z,99722.16
2017-10-21T14:30:24.556Z,99724.13
2017-10-21T14:32:53.779Z,99714.89
2017-10-21T14:35:23.005Z,99724.36
2017-10-21T14:37:52.226Z,99711.03
2017-10-21T14:40:21.423Z,99708.47
2017-10-21T14:42:51.012Z,99711.68
2017-10-21T14:45:20.255Z,99724.59
2017-10-21T14:47:51.013Z,99726.55
2017-10-21T14:50:20.279Z,99724.95
2017-10-21T14:52:50.335Z,99721.77
2017-10-21T14:55:20.289Z,99717.64
2017-10-21T14:57:49.483Z,99729.00
2017-10-21T15:00:18.699Z,99725.27
2017-10-21T15:02:47.884Z,99721.69
2017-10-21T15:05:17.124Z,99714.02
2017-10-21T15:07:47.079Z,99712.42
2017-10-21T15:10:16.309Z,99712.13
2017-10-21T15:12:45.496Z,99715.42
2017-10-21T15:15:14.753Z,99708.31
2017-10-21T15:17:43.948Z,99723.62
2017-10-21T15:20:13.184Z,99711.25
2017-10-21T15:22:42.410Z,99716.70
2017-10-21T15:25:11.761Z,99719.63
2017-10-21T15:27:40.981Z,99727.67
2017-10-21T15:30:10.177Z,99723.11
2017-10-21T15:32:39.397Z,99723.75
2017-10-21T15:35:09.388Z,99729.43
2017-10-21T15:37:38.629Z,99720.34
2017-10-21T15:40:08.699Z,99725.78
2017-10-21T15:42:37.912Z,99724.20
2017-10-21T15:45:07.373Z,99728.08
2017-10-21T15:47:36.582Z,99727.53
2017-10-21T15:50:05.823Z,99730.23
2017-10-21T15:52:35.000Z,99731.01
2017-10-21T15:55:04.204Z,99728.84
2017-10-21T15:57:33.416Z,99738.00
2017-10-21T16:00:03.407Z,99742.47
2017-10-21T16:02:32.612Z,99728.67
2017-10-21T16:05:01.795Z,99721.97
2017-10-21T16:07:31.049Z,99724.86
2017-10-21T16:10:01.091Z,99739.07
2017-10-21T16:12:30.356Z,99735.08
2017-10-21T16:14:59.570Z,99733.81
2017-10-21T16:17:28.775Z,99740.94
2017-10-21T16:19:57.976Z,99747.01
2017-10-21T16:22:27.211Z,99733.41
2017-10-21T16:24:56.437Z,99739.05
2017-10-21T16:27:26.442Z,99732.01
2017-10-21T16:29:56.394Z,99737.42
2017-10-21T16:32:25.620Z,99737.11
2017-10-21T16:34:54.832Z,99734.37
2017-10-21T16:37:24.047Z,99751.22
2017-10-21T16:39:53.258Z,99745.30
2017-10-21T16:42:22.463Z,99762.19
2017-10-21T16:44:52.451Z,99763.72
2017-10-21T16:47:21.651Z,99742.75
2017-10-21T16:49:50.865Z,99736.04
2017-10-21T16:52:20.848Z,99734.56
2017-10-21T16:54:50.037Z,99746.79
2017-10-21T16:57:19.259Z,99763.36
2017-10-21T16:59:48.539Z,99772.36
2017-10-21T17:02:17.778Z,99779.31
2017-10-21T17:04:47.752Z,99777.86
2017-10-21T17:07:17.141Z,99774.39
2017-10-21T17:09:46.340Z,99782.00
2017-10-21T17:12:15.553Z,99790.09
2017-10-21T17:14:44.763Z,99786.55
2017-10-21T17:17:13.989Z,99784.07
2017-10-21T17:19:43.959Z,99783.71
2017-10-21T17:22:13.177Z,99775.93
2017-10-21T17:24:42.416Z,99782.30
2017-10-21T17:27:11.632Z,99775.38
2017-10-21T17:29:40.854Z,99781.36
2017-10-21T17:32:10.048Z,99780.13
2017-10-21T17:34:39.273Z,99779.39
2017-10-21T17:37:09.260Z,99792.70
2017-10-21T17:39:38.467Z,99788.24
2017-10-21T17:42:07.679Z,99790.87
2017-10-21T17:44:36.882Z,99793.91
2017-10-21T17:47:06.844Z,99794.08
2017-10-21T17:49:36.086Z,99788.28
2017-10-21T17:52:05.291Z,99786.38
2017-10-21T17:54:35.281Z,99788.69
2017-10-21T17:57:04.483Z,99790.39
2017-10-21T17:59:33.758Z,99799.62
2017-10-21T18:02:02.988Z,99803.23
2017-10-21T18:04:32.191Z,99807.27
2017-10-21T18:07:02.185Z,99802.50
2017-10-21T18:09:31.427Z,99800.83
2017-10-21T18:12:01.830Z,99797.20
2017-10-21T18:14:30.996Z,99794.59
2017-10-21T18:17:00.196Z,99789.79
2017-10-21T18:19:29.447Z,99792.64
2017-10-21T18:21:59.405Z,99789.20
2017-10-21T18:24:29.398Z,99788.06
2017-10-21T18:26:58.603Z,99779.80
2017-10-21T18:29:27.765Z,99785.02
2017-10-21T18:31:57.750Z,99776.75
2017-10-21T18:34:26.954Z,99775.26
2017-10-21T18:36:56.179Z,99774.80
2017-10-21T18:39:25.380Z,99782.70
2017-10-21T18:41:55.326Z,99771.14
2017-10-21T18:44:24.543Z,99774.56
2017-10-21T18:46:53.767Z,99777.69
2017-10-21T18:49:23.732Z,99770.33
2017-10-21T18:51:53.107Z,99770.50
2017-10-21T18:54:22.343Z,99769.42
2017-10-21T18:56:52.346Z,99776.69
2017-10-21T18:59:21.560Z,99778.95
2017-10-21T19:01:52.391Z,99776.72
2017-10-21T19:04:21.583Z,99777.48
2017-10-21T19:06:51.573Z,99787.97
2017-10-21T19:09:20.804Z,99776.33
2017-10-21T19:11:50.021Z,99781.64
2017-10-21T19:14:19.240Z,99779.84
2017-10-21T19:16:49.210Z,99779.81
2017-10-21T19:19:18.422Z,99784.23
2017-10-21T19:21:47.646Z,99780.96
2017-10-21T19:24:16.864Z,99786.35
2017-10-21T19:26:46.078Z,99792.95
2017-10-21T19:29:15.320Z,99790.27
2017-10-21T19:31:44.593Z,99788.11
2017-10-21T19:34:13.792Z,99782.97
2017-10-21T19:36:43.011Z,99778.63
2017-10-21T19:39:12.239Z,99784.48
2017-10-21T19:41:42.316Z,99785.13
2017-10-21T19:44:11.545Z,99788.79
2017-10-21T19:46:41.520Z,99787.78
2017-10-21T19:49:11.535Z,99788.43
2017-10-21T19:51:40.775Z,99792.17
2017-10-21T19:54:10.761Z,99788.91
2017-10-21T19:56:39.979Z,99801.30
2017-10-21T19:59:09.189Z,99782.83
2017-10-21T20:01:39.176Z,99789.58
2017-10-21T20:04:08.393Z,99793.31
2017-10-21T20:06:37.623Z,99794.00
2017-10-21T20:09:06.850Z,99796.41
2017-10-21T20:11:36.064Z,99799.56
2017-10-21T20:14:05.256Z,99802.76
2017-10-21T20:16:34.477Z,99805.09
2017-10-21T20:19:03.685Z,99817.56
2017-10-21T20:21:32.887Z,99808.69
2017-10-21T20:24:02.956Z,99806.93
2017-10-21T20:26:32.164Z,99806.89
2017-10-21T20:29:01.363Z,99813.36
2017-10-21T20:31:30.572Z,99807.36
2017-10-21T20:33:59.791Z,99809.41
2017-10-21T20:36:29.751Z,99805.82
2017-10-21T20:38:59.001Z,99812.86
2017-10-21T20:41:28.976Z,99807.40
2017-10-21T20:43:58.960Z,99807.55
2017-10-21T20:46:28.159Z,99808.19
2017-10-21T20:48:57.399Z,99811.96
2017-10-21T20:51:26.600Z,99808.12
2017-10-21T20:53:55.809Z,99801.44
2017-10-21T20:56:25.027Z,99808.91
2017-10-21T20:58:55.008Z,99802.66
2017-10-21T21:01:24.239Z,99800.54
2017-10-21T21:03:54.224Z,99799.28
2017-10-21T21:06:23.466Z,99797.91
2017-10-21T21:08:53.397Z,99802.34
2017-10-21T21:11:22.607Z,99805.31
2017-10-21T21:13:51.808Z,99802.27
2017-10-21T21:16:21.027Z,99816.74
2017-10-21T21:18:50.295Z,99804.45
2017-10-21T21:21:19.466Z,99803.41
2017-10-21T21:23:49.456Z,99795.22
2017-10-21T21:26:18.673Z,99801.47
2017-10-21T21:28:48.674Z,99797.55
2017-10-21T21:31:18.679Z,99795.62
2017-10-21T21:33:47.919Z,99795.01
2017-10-21T21:36:17.155Z,99794.72
2017-10-21T21:38:46.363Z,99800.94
2017-10-21T21:41:15.572Z,99795.87
2017-10-21T21:43:44.782Z,99793.39
2017-10-21T21:46:14.767Z,99792.09
2017-10-21T21:48:43.964Z,99805.45
2017-10-21T21:51:13.172Z,99810.09
2017-10-21T21:53:42.415Z,99814.83
2017-10-21T21:56:11.639Z,99811.13
2017-10-21T21:58:40.922Z,99808.08
2017-10-21T22:01:10.135Z,99804.66
2017-10-21T22:03:39.323Z,99810.34
2017-10-21T22:06:08.558Z,99810.44
2017-10-21T22:08:37.767Z,99807.06
2017-10-21T22:11:07.772Z,99811.16
2017-10-21T22:13:36.997Z,99809.53
2017-10-21T22:16:06.966Z,99813.19
2017-10-21T22:18:36.951Z,99809.89
2017-10-21T22:21:06.188Z,99811.30
2017-10-21T22:23:35.412Z,99810.90
2017-10-21T22:26:04.603Z,99804.44
2017-10-21T22:28:33.816Z,99809.28
2017-10-21T22:31:03.797Z,99805.30
2017-10-21T22:33:33.053Z,99806.19
2017-10-21T22:36:02.303Z,99811.97
2017-10-21T22:38:31.503Z,99808.45
2017-10-21T22:41:00.715Z,99807.83
2017-10-21T22:43:30.696Z,99799.21
2017-10-21T22:46:00.145Z,99800.42
2017-10-21T22:48:30.096Z,99794.31
2017-10-21T22:51:00.095Z,99800.27
2017-10-21T22:53:29.294Z,99799.59
2017-10-21T22:55:58.699Z,99802.94
2017-10-21T22:58:27.895Z,99798.30
2017-10-21T23:00:57.101Z,99796.56
2017-10-21T23:03:26.308Z,99800.19
2017-10-21T23:05:55.503Z,99806.48
2017-10-21T23:08:24.712Z,99790.73
2017-10-21T23:10:53.932Z,99791.66
2017-10-21T23:13:23.138Z,99794.05
2017-10-21T23:15:52.310Z,99795.59
2017-10-21T23:18:21.527Z,99789.37
2017-10-21T23:20:50.707Z,99789.12
2017-10-21T23:23:19.911Z,99793.45
2017-10-21T23:25:49.087Z,99783.52
2017-10-21T23:28:18.268Z,99781.51
2017-10-21T23:30:47.483Z,99779.20
2017-10-21T23:33:16.667Z,99782.33
2017-10-21T23:35:46.733Z,99781.75
2017-10-21T23:38:16.683Z,99780.48
2017-10-21T23:40:46.409Z,99778.77
2017-10-21T23:43:15.602Z,99781.41
2017-10-21T23:45:44.783Z,99782.08
2017-10-21T23:48:13.992Z,99785.12
2017-10-21T23:50:43.164Z,99784.03
2017-10-21T23:53:13.119Z,99781.42
2017-10-21T23:55:42.298Z,99777.38
2017-10-21T23:58:11.487Z,99771.63
